Time;durP1;ratioP1;P1;durP2;ratioP2;P2;SDS_P1;SDS_P2;PMS_P1;PMS_P2;Temp;Humidity;BMP_temperature;BMP_pressure;BME280_temperature;BME280_humidity;BME280_pressure;Samples;Min_cycle;Max_cycle;Signal;HPM_P1;HPM_P2
2023/12/08 00:02:10;;;;;;;0.30;0.30;;;;;;;;;;4988526;28;20535;-80
2023/12/08 00:04:36;;;;;;;0.10;0.10;;;;;;;;;;4985692;28;20137;-81
2023/12/08 00:07:03;;;;;;;0.10;0.10;;;;;;;;;;5003324;28;20083;-78
2023/12/08 00:09:30;;;;;;;0.10;0.10;;;;;;;;;;5004223;28;20066;-78
2023/12/08 00:11:57;;;;;;;0.10;0.10;;;;;;;;;;4988498;28;20607;-81
2023/12/08 00:14:24;;;;;;;0.10;0.10;;;;;;;;;;4989511;28;20061;-77
2023/12/08 00:16:50;;;;;;;0.20;0.20;;;;;;;;;;4989434;28;20055;-77
2023/12/08 00:19:17;;;;;;;0.10;0.10;;;;;;;;;;4983071;28;20059;-77
2023/12/08 00:21:43;;;;;;;0.65;0.65;;;;;;;;;;4987381;28;20146;-78
2023/12/08 00:24:11;;;;;;;0.13;0.13;;;;;;;;;;4981906;28;20483;-78
2023/12/08 00:26:37;;;;;;;0.10;0.10;;;;;;;;;;4987115;28;20062;-77
2023/12/08 00:29:04;;;;;;;0.10;0.10;;;;;;;;;;4988133;28;20058;-80
2023/12/08 00:31:31;;;;;;;0.10;0.10;;;;;;;;;;4988545;28;20061;-77
2023/12/08 00:33:58;;;;;;;0.10;0.10;;;;;;;;;;4986527;28;20059;-78
2023/12/08 00:36:24;;;;;;;0.15;0.15;;;;;;;;;;4982324;28;20485;-80
2023/12/08 00:38:50;;;;;;;0.10;0.10;;;;;;;;;;4982393;28;20091;-78
2023/12/08 00:41:17;;;;;;;0.50;0.50;;;;;;;;;;4986677;28;20133;-78
2023/12/08 00:43:43;;;;;;;0.10;0.10;;;;;;;;;;4985347;28;20047;-78
2023/12/08 00:46:10;;;;;;;0.20;0.20;;;;;;;;;;4981484;28;20398;-77
2023/12/08 00:48:37;;;;;;;0.22;0.22;;;;;;;;;;4985955;28;20669;-80
2023/12/08 00:51:03;;;;;;;0.10;0.10;;;;;;;;;;4990145;28;20124;-77
2023/12/08 00:53:30;;;;;;;0.10;0.10;;;;;;;;;;4990029;28;20051;-77
2023/12/08 00:55:56;;;;;;;0.10;0.10;;;;;;;;;;5006054;28;20059;-77
2023/12/08 00:58:23;;;;;;;0.30;0.30;;;;;;;;;;5005191;28;20584;-78
2023/12/08 01:00:49;;;;;;;0.10;0.10;;;;;;;;;;4987699;28;20061;-80
2023/12/08 01:03:16;;;;;;;0.10;0.10;;;;;;;;;;5005398;28;20059;-77
2023/12/08 01:05:43;;;;;;;0.10;0.10;;;;;;;;;;4989632;28;20068;-77
2023/12/08 01:08:09;;;;;;;0.10;0.10;;;;;;;;;;4990178;28;20055;-77
2023/12/08 01:10:35;;;;;;;0.10;0.10;;;;;;;;;;4987392;28;20052;-77
2023/12/08 01:13:02;;;;;;;0.10;0.10;;;;;;;;;;4981647;28;20132;-80
2023/12/08 01:15:31;;;;;;;0.10;0.10;;;;;;;;;;5004741;28;20064;-77
2023/12/08 01:17:57;;;;;;;0.10;0.10;;;;;;;;;;5000859;28;20065;-77
2023/12/08 01:20:24;;;;;;;7.80;5.60;;;;;;;;;;4990340;28;20085;-78
2023/12/08 01:22:51;;;;;;;8.35;3.75;;;;;;;;;;4988698;28;20123;-79
2023/12/08 01:25:17;;;;;;;0.10;0.10;;;;;;;;;;4999720;28;20102;-77
2023/12/08 01:27:44;;;;;;;0.10;0.10;;;;;;;;;;4982585;28;20487;-78
2023/12/08 01:30:10;;;;;;;0.10;0.10;;;;;;;;;;4986981;28;20099;-77
2023/12/08 01:32:37;;;;;;;0.10;0.10;;;;;;;;;;4984576;28;20476;-78
2023/12/08 01:35:04;;;;;;;0.10;0.10;;;;;;;;;;4984169;28;20058;-78
2023/12/08 01:37:30;;;;;;;0.10;0.10;;;;;;;;;;4998494;28;20126;-77
2023/12/08 01:39:57;;;;;;;0.10;0.10;;;;;;;;;;4985695;28;20054;-80
2023/12/08 01:42:25;;;;;;;0.10;0.10;;;;;;;;;;4988262;28;20058;-78
2023/12/08 01:44:51;;;;;;;0.10;0.10;;;;;;;;;;4987082;28;20046;-78
2023/12/08 01:47:17;;;;;;;0.10;0.10;;;;;;;;;;4988249;28;20845;-77
2023/12/08 01:49:44;;;;;;;0.10;0.10;;;;;;;;;;4999517;28;20053;-79
2023/12/08 01:52:12;;;;;;;0.10;0.10;;;;;;;;;;4999230;28;20058;-77
2023/12/08 01:54:39;;;;;;;0.10;0.10;;;;;;;;;;4988729;28;20054;-77
2023/12/08 01:57:05;;;;;;;0.10;0.10;;;;;;;;;;4984121;28;20057;-76
2023/12/08 01:59:32;;;;;;;0.15;0.15;;;;;;;;;;4982937;28;20061;-77
2023/12/08 02:01:58;;;;;;;0.17;0.17;;;;;;;;;;4982136;28;20058;-76
2023/12/08 02:04:25;;;;;;;0.10;0.10;;;;;;;;;;4979494;28;20058;-80
2023/12/08 02:06:52;;;;;;;0.10;0.10;;;;;;;;;;4985772;28;20134;-77
2023/12/08 02:09:19;;;;;;;0.68;0.68;;;;;;;;;;4988505;28;20936;-78
2023/12/08 02:11:45;;;;;;;0.10;0.10;;;;;;;;;;4984157;28;20119;-77
2023/12/08 02:14:13;;;;;;;0.30;0.30;;;;;;;;;;4980707;28;20061;-78
2023/12/08 02:16:42;;;;;;;0.10;0.10;;;;;;;;;;4999467;28;20046;-77
2023/12/08 02:19:11;;;;;;;0.20;0.20;;;;;;;;;;4984007;28;20086;-77
2023/12/08 02:21:38;;;;;;;0.10;0.10;;;;;;;;;;4985833;28;20059;-77
2023/12/08 02:24:04;;;;;;;0.10;0.10;;;;;;;;;;4988911;28;20055;-78
2023/12/08 02:26:31;;;;;;;0.65;0.65;;;;;;;;;;4987257;28;20058;-77
2023/12/08 02:28:57;;;;;;;0.10;0.10;;;;;;;;;;4987122;28;20145;-77
2023/12/08 02:31:34;;;;;;;0.25;0.25;;;;;;;;;;4980267;28;20106;-77
2023/12/08 02:34:01;;;;;;;0.10;0.10;;;;;;;;;;5005874;28;20065;-78
2023/12/08 02:36:28;;;;;;;0.10;0.10;;;;;;;;;;4986885;28;20501;-78
2023/12/08 02:38:55;;;;;;;0.10;0.10;;;;;;;;;;4989762;28;20062;-79
2023/12/08 02:41:22;;;;;;;0.10;0.10;;;;;;;;;;4992702;28;20046;-77
2023/12/08 02:43:48;;;;;;;0.10;0.10;;;;;;;;;;5006370;28;20568;-77
2023/12/08 02:46:14;;;;;;;0.10;0.10;;;;;;;;;;4985191;28;21119;-77
2023/12/08 02:48:41;;;;;;;0.10;0.10;;;;;;;;;;4992908;28;20079;-77
2023/12/08 02:51:07;;;;;;;0.10;0.10;;;;;;;;;;4984726;28;21065;-78
2023/12/08 02:53:34;;;;;;;0.10;0.10;;;;;;;;;;4992459;28;20106;-77
2023/12/08 02:56:01;;;;;;;0.10;0.10;;;;;;;;;;4994211;28;20527;-77
2023/12/08 02:58:27;;;;;;;0.43;0.43;;;;;;;;;;4993680;28;20061;-78
2023/12/08 03:00:54;;;;;;;0.20;0.20;;;;;;;;;;4994003;28;20641;-78
2023/12/08 03:03:20;;;;;;;0.10;0.10;;;;;;;;;;4990115;28;20058;-77
2023/12/08 03:05:47;;;;;;;0.10;0.10;;;;;;;;;;5008848;28;20055;-77
2023/12/08 03:08:13;;;;;;;0.10;0.10;;;;;;;;;;5003224;28;20082;-77
2023/12/08 03:10:39;;;;;;;0.10;0.10;;;;;;;;;;5006542;28;20058;-77
2023/12/08 03:13:06;;;;;;;1.15;1.08;;;;;;;;;;4992503;28;20267;-77
2023/12/08 03:15:32;;;;;;;0.25;0.25;;;;;;;;;;4986546;28;20059;-79
2023/12/08 03:17:59;;;;;;;0.10;0.10;;;;;;;;;;4991434;28;20059;-79
2023/12/08 03:20:25;;;;;;;0.10;0.10;;;;;;;;;;4993407;28;20118;-77
2023/12/08 03:22:52;;;;;;;0.10;0.10;;;;;;;;;;4988864;28;20055;-77
2023/12/08 03:25:18;;;;;;;0.10;0.10;;;;;;;;;;4990776;28;20113;-77
2023/12/08 03:27:47;;;;;;;0.10;0.10;;;;;;;;;;4990498;28;20055;-77
2023/12/08 03:30:14;;;;;;;0.95;0.95;;;;;;;;;;5005831;28;20047;-77
2023/12/08 03:32:40;;;;;;;1.60;0.75;;;;;;;;;;4992308;28;20050;-76
2023/12/08 03:35:07;;;;;;;0.10;0.10;;;;;;;;;;4993301;28;20059;-77
2023/12/08 03:37:33;;;;;;;0.10;0.10;;;;;;;;;;4993670;28;20067;-79
2023/12/08 03:40:00;;;;;;;0.10;0.10;;;;;;;;;;5004371;28;20653;-78
2023/12/08 03:42:27;;;;;;;0.10;0.10;;;;;;;;;;4985480;28;20090;-77
2023/12/08 03:44:53;;;;;;;0.10;0.10;;;;;;;;;;5007197;28;20055;-77
2023/12/08 03:47:20;;;;;;;0.10;0.10;;;;;;;;;;4988804;28;20078;-78
2023/12/08 03:49:46;;;;;;;0.10;0.10;;;;;;;;;;5007576;28;20877;-77
2023/12/08 03:52:13;;;;;;;0.10;0.10;;;;;;;;;;4989347;28;20055;-77
2023/12/08 03:54:39;;;;;;;0.10;0.10;;;;;;;;;;5006796;28;20477;-77
2023/12/08 03:57:06;;;;;;;0.10;0.10;;;;;;;;;;4990850;28;20068;-77
2023/12/08 03:59:32;;;;;;;0.20;0.20;;;;;;;;;;4990600;28;20054;-77
2023/12/08 04:01:58;;;;;;;0.10;0.10;;;;;;;;;;4989361;28;20184;-77
2023/12/08 04:04:25;;;;;;;0.10;0.10;;;;;;;;;;4990521;28;20134;-79
2023/12/08 04:06:54;;;;;;;0.10;0.10;;;;;;;;;;4991574;28;20054;-77
2023/12/08 04:09:20;;;;;;;0.10;0.10;;;;;;;;;;5005723;28;20575;-77
2023/12/08 04:11:47;;;;;;;0.10;0.10;;;;;;;;;;4997149;28;20055;-77
2023/12/08 04:14:13;;;;;;;0.30;0.30;;;;;;;;;;4989192;28;20051;-77
2023/12/08 04:16:40;;;;;;;0.10;0.10;;;;;;;;;;4991510;28;20059;-79
2023/12/08 04:19:06;;;;;;;0.10;0.10;;;;;;;;;;4991451;28;20110;-78
2023/12/08 04:21:33;;;;;;;0.10;0.10;;;;;;;;;;5005394;28;20082;-77
2023/12/08 04:23:59;;;;;;;0.20;0.20;;;;;;;;;;4985836;28;20145;-77
2023/12/08 04:26:25;;;;;;;0.10;0.10;;;;;;;;;;5006356;28;20059;-77
2023/12/08 04:28:52;;;;;;;0.10;0.10;;;;;;;;;;4991058;28;20047;-77
2023/12/08 04:31:19;;;;;;;0.10;0.10;;;;;;;;;;5040878;22;20044;-82
2023/12/08 04:33:46;;;;;;;0.10;0.10;;;;;;;;;;5037783;28;20140;-81
2023/12/08 04:36:13;;;;;;;0.10;0.10;;;;;;;;;;5023899;28;20064;-83
2023/12/08 04:38:39;;;;;;;0.10;0.10;;;;;;;;;;5032378;28;20054;-81
2023/12/08 04:41:06;;;;;;;0.40;0.40;;;;;;;;;;5035296;28;20065;-82
2023/12/08 04:43:35;;;;;;;0.73;0.73;;;;;;;;;;5024273;28;20058;-82
2023/12/08 04:46:01;;;;;;;0.10;0.10;;;;;;;;;;5030930;28;20074;-82
2023/12/08 04:48:28;;;;;;;0.10;0.10;;;;;;;;;;5019634;28;20038;-83
2023/12/08 04:50:55;;;;;;;0.10;0.10;;;;;;;;;;5035264;28;20080;-82
2023/12/08 04:53:21;;;;;;;0.10;0.10;;;;;;;;;;5036944;28;20694;-81
2023/12/08 04:55:48;;;;;;;0.10;0.10;;;;;;;;;;5017008;28;20045;-82
2023/12/08 04:58:16;;;;;;;0.60;0.60;;;;;;;;;;5028144;28;20080;-84
2023/12/08 05:00:42;;;;;;;0.10;0.10;;;;;;;;;;5032052;28;20034;-82
2023/12/08 05:03:09;;;;;;;0.10;0.10;;;;;;;;;;5037796;28;20042;-81
2023/12/08 05:05:37;;;;;;;0.10;0.10;;;;;;;;;;5031163;28;20625;-82
2023/12/08 05:08:04;;;;;;;0.10;0.10;;;;;;;;;;5030771;28;20534;-79
2023/12/08 05:10:31;;;;;;;0.13;0.13;;;;;;;;;;5031474;28;20054;-80
2023/12/08 05:12:58;;;;;;;0.10;0.10;;;;;;;;;;5034418;28;20046;-80
2023/12/08 05:15:25;;;;;;;0.10;0.10;;;;;;;;;;5029121;28;20104;-81
2023/12/08 05:17:51;;;;;;;0.20;0.20;;;;;;;;;;5031286;28;20046;-82
2023/12/08 05:20:18;;;;;;;0.10;0.10;;;;;;;;;;5017997;28;20061;-83
2023/12/08 05:22:44;;;;;;;0.10;0.10;;;;;;;;;;5028708;28;20053;-80
2023/12/08 05:25:11;;;;;;;0.10;0.10;;;;;;;;;;5028051;28;20511;-79
2023/12/08 05:27:39;;;;;;;0.10;0.10;;;;;;;;;;5028082;28;20073;-79
2023/12/08 05:30:06;;;;;;;0.10;0.10;;;;;;;;;;5029247;28;20089;-85
2023/12/08 05:32:32;;;;;;;0.10;0.10;;;;;;;;;;5028713;28;20061;-81
2023/12/08 05:34:59;;;;;;;0.10;0.10;;;;;;;;;;5028592;28;20050;-80
2023/12/08 05:37:25;;;;;;;0.10;0.10;;;;;;;;;;5020609;28;20068;-80
2023/12/08 05:39:53;;;;;;;0.10;0.10;;;;;;;;;;5013531;28;20136;-83
2023/12/08 05:42:19;;;;;;;0.10;0.10;;;;;;;;;;5028928;28;20060;-80
2023/12/08 05:44:46;;;;;;;0.10;0.10;;;;;;;;;;5012144;28;20054;-80
2023/12/08 05:47:12;;;;;;;0.10;0.10;;;;;;;;;;5030308;28;20112;-79
2023/12/08 05:49:39;;;;;;;0.68;0.63;;;;;;;;;;5017834;28;20054;-84
2023/12/08 05:52:05;;;;;;;0.10;0.10;;;;;;;;;;5029490;28;20140;-79
2023/12/08 05:54:32;;;;;;;0.10;0.10;;;;;;;;;;5026542;28;20045;-81
2023/12/08 05:56:58;;;;;;;0.10;0.10;;;;;;;;;;5027441;28;20516;-80
2023/12/08 05:59:25;;;;;;;2.25;2.05;;;;;;;;;;5021280;28;20156;-80
2023/12/08 06:01:51;;;;;;;0.10;0.10;;;;;;;;;;5028800;28;20180;-85
2023/12/08 06:04:18;;;;;;;0.10;0.10;;;;;;;;;;5028989;28;20054;-82
2023/12/08 06:06:44;;;;;;;0.10;0.10;;;;;;;;;;5029014;28;20050;-79
2023/12/08 06:09:11;;;;;;;0.65;0.65;;;;;;;;;;5027254;28;20062;-80
2023/12/08 06:11:37;;;;;;;0.10;0.10;;;;;;;;;;5026584;28;20058;-80
2023/12/08 06:14:06;;;;;;;0.10;0.10;;;;;;;;;;5029115;28;20144;-80
2023/12/08 06:16:32;;;;;;;0.10;0.10;;;;;;;;;;5030611;28;20061;-81
2023/12/08 06:18:59;;;;;;;0.10;0.10;;;;;;;;;;5028163;28;20057;-81
2023/12/08 06:21:26;;;;;;;0.10;0.10;;;;;;;;;;5028399;28;20050;-81
2023/12/08 06:23:52;;;;;;;0.10;0.10;;;;;;;;;;5015812;28;20046;-79
2023/12/08 06:26:19;;;;;;;0.15;0.15;;;;;;;;;;5029285;28;20413;-80
2023/12/08 06:28:49;;;;;;;0.10;0.10;;;;;;;;;;5003820;28;20067;-78
2023/12/08 06:31:17;;;;;;;0.10;0.10;;;;;;;;;;5022581;28;20058;-82
2023/12/08 06:33:43;;;;;;;0.10;0.10;;;;;;;;;;5024227;28;20109;-80
2023/12/08 06:36:15;;;;;;;0.10;0.10;;;;;;;;;;5028508;28;20039;-82
2023/12/08 06:38:42;;;;;;;0.50;0.50;;;;;;;;;;5012581;28;20057;-81
2023/12/08 06:41:10;;;;;;;0.10;0.10;;;;;;;;;;5028929;28;20053;-79
2023/12/08 06:43:36;;;;;;;0.10;0.10;;;;;;;;;;5041473;28;20049;-82
2023/12/08 06:46:03;;;;;;;0.22;0.22;;;;;;;;;;5027849;28;20520;-79
2023/12/08 06:48:29;;;;;;;0.50;0.50;;;;;;;;;;5009161;28;20069;-79
2023/12/08 06:50:56;;;;;;;0.10;0.10;;;;;;;;;;5027487;28;20057;-82
2023/12/08 06:53:23;;;;;;;0.10;0.10;;;;;;;;;;5018633;28;20054;-79
2023/12/08 06:55:49;;;;;;;0.10;0.10;;;;;;;;;;5024167;28;20112;-79
2023/12/08 06:58:15;;;;;;;0.20;0.20;;;;;;;;;;5008509;28;20058;-78
2023/12/08 07:00:42;;;;;;;0.10;0.10;;;;;;;;;;5023992;28;20598;-80
2023/12/08 07:03:08;;;;;;;0.20;0.20;;;;;;;;;;5025527;28;20054;-79
2023/12/08 07:05:35;;;;;;;0.10;0.10;;;;;;;;;;5025925;28;20070;-82
2023/12/08 07:08:02;;;;;;;0.57;0.57;;;;;;;;;;5025025;28;20054;-81
2023/12/08 07:10:28;;;;;;;0.10;0.10;;;;;;;;;;5026527;28;20523;-79
2023/12/08 07:12:55;;;;;;;0.10;0.10;;;;;;;;;;5025581;28;20135;-80
2023/12/08 07:15:21;;;;;;;0.22;0.22;;;;;;;;;;5025419;28;20097;-83
2023/12/08 07:17:48;;;;;;;0.10;0.10;;;;;;;;;;5030452;28;20061;-80
2023/12/08 07:20:18;;;;;;;0.10;0.10;;;;;;;;;;5009769;28;20053;-80
2023/12/08 07:22:44;;;;;;;0.10;0.10;;;;;;;;;;5030314;28;20227;-83
2023/12/08 07:25:12;;;;;;;0.10;0.10;;;;;;;;;;5021118;28;20046;-80
2023/12/08 07:27:38;;;;;;;0.10;0.10;;;;;;;;;;5030103;28;20057;-83
2023/12/08 07:30:05;;;;;;;0.10;0.10;;;;;;;;;;5031369;28;20361;-80
2023/12/08 07:32:32;;;;;;;0.10;0.10;;;;;;;;;;5030305;28;20053;-80
2023/12/08 07:34:58;;;;;;;0.10;0.10;;;;;;;;;;5011425;28;21175;-77
2023/12/08 07:37:25;;;;;;;2.70;1.40;;;;;;;;;;5028522;28;20058;-81
2023/12/08 07:39:51;;;;;;;0.10;0.10;;;;;;;;;;5027670;28;20056;-78
2023/12/08 07:42:18;;;;;;;0.10;0.10;;;;;;;;;;5022842;28;20124;-79
2023/12/08 07:44:44;;;;;;;0.30;0.30;;;;;;;;;;5008403;28;20050;-78
2023/12/08 07:47:11;;;;;;;0.10;0.10;;;;;;;;;;5026419;28;20136;-80
2023/12/08 07:49:37;;;;;;;0.10;0.10;;;;;;;;;;5010949;28;20528;-80
2023/12/08 07:52:04;;;;;;;0.10;0.10;;;;;;;;;;5029304;28;20475;-79
2023/12/08 07:54:32;;;;;;;1.33;1.27;;;;;;;;;;5024268;28;20050;-80
2023/12/08 07:56:58;;;;;;;0.10;0.10;;;;;;;;;;5007870;28;20054;-80
2023/12/08 07:59:25;;;;;;;0.10;0.10;;;;;;;;;;5026784;28;20061;-79
2023/12/08 08:01:52;;;;;;;0.45;0.45;;;;;;;;;;5010550;28;20054;-80
2023/12/08 08:04:18;;;;;;;0.55;0.55;;;;;;;;;;5020514;28;20571;-79
2023/12/08 08:06:45;;;;;;;0.10;0.10;;;;;;;;;;5025475;28;20061;-79
2023/12/08 08:09:11;;;;;;;0.10;0.10;;;;;;;;;;5035649;28;20053;-77
2023/12/08 08:11:38;;;;;;;0.10;0.10;;;;;;;;;;5029806;28;20045;-79
2023/12/08 08:14:05;;;;;;;0.10;0.10;;;;;;;;;;5026829;28;20141;-77
2023/12/08 08:16:31;;;;;;;0.10;0.10;;;;;;;;;;5026939;28;20554;-78
2023/12/08 08:18:57;;;;;;;0.10;0.10;;;;;;;;;;5025870;28;20064;-78
2023/12/08 08:21:24;;;;;;;0.10;0.10;;;;;;;;;;5024825;28;20057;-79
2023/12/08 08:23:50;;;;;;;0.10;0.10;;;;;;;;;;5027954;28;20573;-79
2023/12/08 08:26:17;;;;;;;0.30;0.30;;;;;;;;;;5030908;28;20046;-78
2023/12/08 08:28:43;;;;;;;0.15;0.15;;;;;;;;;;5027293;28;20065;-79
2023/12/08 08:31:11;;;;;;;0.10;0.10;;;;;;;;;;5023834;28;20057;-81
2023/12/08 08:33:37;;;;;;;0.10;0.10;;;;;;;;;;5004815;28;20140;-79
2023/12/08 08:36:05;;;;;;;0.65;0.65;;;;;;;;;;5022511;28;20873;-79
2023/12/08 08:38:32;;;;;;;0.10;0.10;;;;;;;;;;5023224;28;20073;-80
2023/12/08 08:40:58;;;;;;;0.10;0.10;;;;;;;;;;5009052;28;20054;-79
2023/12/08 08:43:25;;;;;;;0.10;0.10;;;;;;;;;;5027666;28;20500;-79
2023/12/08 08:45:52;;;;;;;1.75;1.65;;;;;;;;;;5028577;28;20054;-83
2023/12/08 08:48:18;;;;;;;0.10;0.10;;;;;;;;;;5026254;28;20061;-82
2023/12/08 08:50:48;;;;;;;0.47;0.47;;;;;;;;;;5024057;28;20057;-78
2023/12/08 08:53:19;;;;;;;0.10;0.10;;;;;;;;;;5023316;28;20061;-78
2023/12/08 08:55:45;;;;;;;0.10;0.10;;;;;;;;;;5027430;28;20551;-79
2023/12/08 08:58:12;;;;;;;0.10;0.10;;;;;;;;;;5026232;28;20060;-78
2023/12/08 09:00:38;;;;;;;0.10;0.10;;;;;;;;;;5023748;28;20049;-80
2023/12/08 09:03:04;;;;;;;0.10;0.10;;;;;;;;;;5030135;28;20049;-78
2023/12/08 09:05:32;;;;;;;0.10;0.10;;;;;;;;;;5009510;28;20069;-78
2023/12/08 09:07:59;;;;;;;0.10;0.10;;;;;;;;;;5027170;28;20116;-78
2023/12/08 09:10:25;;;;;;;0.10;0.10;;;;;;;;;;5024968;28;20069;-77
2023/12/08 09:12:52;;;;;;;0.10;0.10;;;;;;;;;;5024349;28;20050;-81
2023/12/08 09:15:18;;;;;;;0.10;0.10;;;;;;;;;;5034192;28;20061;-79
2023/12/08 09:17:45;;;;;;;0.20;0.20;;;;;;;;;;5027218;28;20050;-77
2023/12/08 09:20:14;;;;;;;0.63;0.63;;;;;;;;;;5024646;28;20133;-78
2023/12/08 09:22:41;;;;;;;0.10;0.10;;;;;;;;;;5031817;28;20504;-78
2023/12/08 09:25:08;;;;;;;0.10;0.10;;;;;;;;;;5002707;28;20141;-78
2023/12/08 09:27:35;;;;;;;0.10;0.10;;;;;;;;;;5006004;28;20062;-79
2023/12/08 09:30:01;;;;;;;0.10;0.10;;;;;;;;;;5022175;28;20061;-79
2023/12/08 09:32:28;;;;;;;0.10;0.10;;;;;;;;;;5031068;28;20521;-78
2023/12/08 09:34:55;;;;;;;0.10;0.10;;;;;;;;;;5027662;28;20056;-81
2023/12/08 09:37:21;;;;;;;0.10;0.10;;;;;;;;;;5025671;28;20061;-77
2023/12/08 09:40:01;;;;;;;0.20;0.20;;;;;;;;;;5024182;28;20125;-77
2023/12/08 09:42:34;;;;;;;0.10;0.10;;;;;;;;;;5023766;28;20058;-82
2023/12/08 09:45:04;;;;;;;0.10;0.10;;;;;;;;;;5024413;28;20054;-77
2023/12/08 09:47:33;;;;;;;0.10;0.10;;;;;;;;;;5027149;28;20535;-77
2023/12/08 09:50:02;;;;;;;0.68;0.68;;;;;;;;;;5024675;28;20057;-79
2023/12/08 09:52:29;;;;;;;0.10;0.10;;;;;;;;;;5023883;28;20042;-81
2023/12/08 09:54:56;;;;;;;0.10;0.10;;;;;;;;;;5022860;28;20112;-79
2023/12/08 09:57:23;;;;;;;0.10;0.10;;;;;;;;;;5025602;28;20054;-80
2023/12/08 09:59:50;;;;;;;0.20;0.20;;;;;;;;;;5025998;28;20164;-79
2023/12/08 10:02:18;;;;;;;0.10;0.10;;;;;;;;;;5026664;28;20057;-78
2023/12/08 10:04:45;;;;;;;3.13;2.22;;;;;;;;;;5025664;28;20046;-80
2023/12/08 10:07:13;;;;;;;0.10;0.10;;;;;;;;;;5026354;28;20058;-77
2023/12/08 10:09:41;;;;;;;0.10;0.10;;;;;;;;;;5020410;28;20177;-81
2023/12/08 10:12:07;;;;;;;0.65;0.65;;;;;;;;;;5022292;28;20060;-79
2023/12/08 10:14:34;;;;;;;0.28;0.28;;;;;;;;;;5024080;28;20053;-78
2023/12/08 10:17:00;;;;;;;0.10;0.10;;;;;;;;;;5022758;28;20137;-80
2023/12/08 10:19:27;;;;;;;0.10;0.10;;;;;;;;;;5024212;28;20068;-77
2023/12/08 10:22:00;;;;;;;0.10;0.10;;;;;;;;;;5025088;28;20163;-80
2023/12/08 10:24:28;;;;;;;0.10;0.10;;;;;;;;;;5021354;28;20085;-77
2023/12/08 10:26:55;;;;;;;0.10;0.10;;;;;;;;;;5029899;28;20064;-78
2023/12/08 10:29:21;;;;;;;0.20;0.20;;;;;;;;;;5025063;28;20057;-78
2023/12/08 10:31:48;;;;;;;0.10;0.10;;;;;;;;;;5023176;28;20085;-77
2023/12/08 10:34:14;;;;;;;0.10;0.10;;;;;;;;;;5090132;23;20058;-75
2023/12/08 10:36:41;;;;;;;0.20;0.20;;;;;;;;;;4992479;28;20069;-74
2023/12/08 10:39:07;;;;;;;0.20;0.20;;;;;;;;;;5023148;28;20109;-74
2023/12/08 10:41:34;;;;;;;0.10;0.10;;;;;;;;;;5022230;28;20060;-75
2023/12/08 10:44:06;;;;;;;3.10;2.90;;;;;;;;;;5015732;28;20054;-74
2023/12/08 10:46:32;;;;;;;0.10;0.10;;;;;;;;;;5003910;28;20058;-74
2023/12/08 10:48:59;;;;;;;0.20;0.20;;;;;;;;;;4994966;28;20058;-75
2023/12/08 10:51:26;;;;;;;0.10;0.10;;;;;;;;;;4999279;28;20092;-75
2023/12/08 10:53:53;;;;;;;0.10;0.10;;;;;;;;;;5003722;28;20062;-76
2023/12/08 10:56:20;;;;;;;0.20;0.20;;;;;;;;;;5001859;28;20054;-75
2023/12/08 10:58:50;;;;;;;2.85;2.75;;;;;;;;;;5008180;28;20054;-75
2023/12/08 11:01:18;;;;;;;3.00;1.55;;;;;;;;;;4994759;28;20063;-74
2023/12/08 11:03:48;;;;;;;0.20;0.20;;;;;;;;;;5007819;28;20101;-75
2023/12/08 11:06:28;;;;;;;0.10;0.10;;;;;;;;;;5009123;28;20054;-75
2023/12/08 11:08:57;;;;;;;0.10;0.10;;;;;;;;;;5007080;28;20436;-75
2023/12/08 11:11:24;;;;;;;0.10;0.10;;;;;;;;;;5007631;28;21391;-75
2023/12/08 11:13:53;;;;;;;0.10;0.10;;;;;;;;;;5003463;28;20705;-75
2023/12/08 11:16:22;;;;;;;0.10;0.10;;;;;;;;;;5001061;28;20094;-74
2023/12/08 11:18:49;;;;;;;0.10;0.10;;;;;;;;;;5007983;28;20046;-75
2023/12/08 11:21:17;;;;;;;0.85;0.85;;;;;;;;;;4990430;28;20101;-74
2023/12/08 11:23:44;;;;;;;0.13;0.13;;;;;;;;;;5002900;28;20057;-75
2023/12/08 11:26:18;;;;;;;0.15;0.15;;;;;;;;;;5007529;28;20097;-74
2023/12/08 11:28:56;;;;;;;0.10;0.10;;;;;;;;;;5005964;28;21000;-74
2023/12/08 11:31:26;;;;;;;0.10;0.10;;;;;;;;;;4997809;28;20059;-75
2023/12/08 11:33:58;;;;;;;0.10;0.10;;;;;;;;;;4993825;28;20145;-74
2023/12/08 11:36:25;;;;;;;0.10;0.10;;;;;;;;;;4993476;28;20204;-75
2023/12/08 11:38:52;;;;;;;0.20;0.20;;;;;;;;;;5005093;28;20058;-75
2023/12/08 11:41:19;;;;;;;0.10;0.10;;;;;;;;;;5004761;28;20066;-75
2023/12/08 11:43:45;;;;;;;0.10;0.10;;;;;;;;;;5007189;28;20078;-75
2023/12/08 11:46:15;;;;;;;0.10;0.10;;;;;;;;;;4997148;28;20050;-75
2023/12/08 11:48:42;;;;;;;0.10;0.10;;;;;;;;;;5000585;28;20526;-75
2023/12/08 11:51:10;;;;;;;0.10;0.10;;;;;;;;;;5008622;28;20051;-75
2023/12/08 11:53:55;;;;;;;0.10;0.10;;;;;;;;;;5004592;28;20263;-75
2023/12/08 11:56:41;;;;;;;2.50;2.30;;;;;;;;;;5002499;28;20059;-76
2023/12/08 11:59:08;;;;;;;0.30;0.30;;;;;;;;;;5003903;28;20054;-76
2023/12/08 12:01:41;;;;;;;0.10;0.10;;;;;;;;;;4986620;28;20129;-74
2023/12/08 12:04:08;;;;;;;0.38;0.38;;;;;;;;;;5006740;28;20535;-75
2023/12/08 12:06:35;;;;;;;0.10;0.10;;;;;;;;;;5006022;28;20295;-74
2023/12/08 12:09:02;;;;;;;0.32;0.32;;;;;;;;;;5004039;28;20527;-74
2023/12/08 12:11:31;;;;;;;0.10;0.10;;;;;;;;;;5000705;28;20590;-75
2023/12/08 12:14:04;;;;;;;0.10;0.10;;;;;;;;;;5005338;28;20064;-74
2023/12/08 12:16:30;;;;;;;0.20;0.20;;;;;;;;;;5005304;28;20059;-75
2023/12/08 12:18:57;;;;;;;0.10;0.10;;;;;;;;;;5006136;28;20583;-75
2023/12/08 12:21:23;;;;;;;0.35;0.35;;;;;;;;;;5005138;28;20060;-75
2023/12/08 12:23:50;;;;;;;0.10;0.10;;;;;;;;;;5011284;28;20440;-75
2023/12/08 12:26:18;;;;;;;0.10;0.10;;;;;;;;;;5004043;28;20605;-74
2023/12/08 12:28:44;;;;;;;0.10;0.10;;;;;;;;;;5004604;28;20500;-75
2023/12/08 12:31:12;;;;;;;0.10;0.10;;;;;;;;;;5006008;28;20129;-74
2023/12/08 12:33:39;;;;;;;0.10;0.10;;;;;;;;;;5006056;28;20058;-75
2023/12/08 12:36:07;;;;;;;0.10;0.10;;;;;;;;;;5001890;28;20574;-75
2023/12/08 12:38:33;;;;;;;0.10;0.10;;;;;;;;;;5005456;28;20506;-75
2023/12/08 12:41:18;;;;;;;0.10;0.10;;;;;;;;;;5001715;28;20237;-75
2023/12/08 12:43:45;;;;;;;0.30;0.30;;;;;;;;;;5003893;28;20562;-75
2023/12/08 12:46:11;;;;;;;0.10;0.10;;;;;;;;;;5004241;28;20125;-75
2023/12/08 12:48:38;;;;;;;0.10;0.10;;;;;;;;;;4987221;28;20065;-75
2023/12/08 12:51:07;;;;;;;0.10;0.10;;;;;;;;;;5006710;28;20445;-75
2023/12/08 12:53:42;;;;;;;0.10;0.10;;;;;;;;;;5005821;28;20054;-75
2023/12/08 12:56:09;;;;;;;0.10;0.10;;;;;;;;;;5005453;28;20500;-75
2023/12/08 12:58:35;;;;;;;0.10;0.10;;;;;;;;;;5005563;28;20061;-74
2023/12/08 13:01:12;;;;;;;0.10;0.10;;;;;;;;;;4987826;28;20129;-74
2023/12/08 13:03:45;;;;;;;0.10;0.10;;;;;;;;;;5005553;28;20046;-75
2023/12/08 13:06:12;;;;;;;2.38;0.73;;;;;;;;;;5004962;28;20109;-75
2023/12/08 13:08:43;;;;;;;0.73;0.73;;;;;;;;;;4998119;28;20054;-75
2023/12/08 13:11:09;;;;;;;;;;;;;;;;;;5007822;28;20082;-75
2023/12/08 13:13:36;;;;;;;0.10;0.10;;;;;;;;;;5007423;28;44838;-75
2023/12/08 13:16:03;;;;;;;0.10;0.10;;;;;;;;;;5007128;28;20054;-75
2023/12/08 13:18:29;;;;;;;0.10;0.10;;;;;;;;;;5007274;28;20050;-75
2023/12/08 13:20:56;;;;;;;0.30;0.30;;;;;;;;;;5007786;28;20472;-75
2023/12/08 13:23:22;;;;;;;1.00;1.00;;;;;;;;;;5007124;28;20218;-75
2023/12/08 13:25:48;;;;;;;0.43;0.43;;;;;;;;;;5008345;28;20086;-75
2023/12/08 13:28:15;;;;;;;0.10;0.10;;;;;;;;;;4989591;28;20058;-75
2023/12/08 13:30:41;;;;;;;0.38;0.38;;;;;;;;;;4995720;28;20146;-75
2023/12/08 13:33:08;;;;;;;2.10;1.10;;;;;;;;;;5007302;28;20133;-74
2023/12/08 13:35:35;;;;;;;2.83;2.60;;;;;;;;;;5007423;28;20738;-75
2023/12/08 13:38:02;;;;;;;0.10;0.10;;;;;;;;;;5008145;28;20054;-75
2023/12/08 13:40:28;;;;;;;0.10;0.10;;;;;;;;;;5007638;28;20058;-75
2023/12/08 13:42:55;;;;;;;0.20;0.20;;;;;;;;;;5007480;28;20054;-75
2023/12/08 13:45:22;;;;;;;0.47;0.47;;;;;;;;;;5006384;28;20046;-75
2023/12/08 13:47:48;;;;;;;0.10;0.10;;;;;;;;;;5001181;28;20456;-75
2023/12/08 13:50:15;;;;;;;0.10;0.10;;;;;;;;;;5008115;28;20078;-75
2023/12/08 13:52:41;;;;;;;0.32;0.32;;;;;;;;;;4988847;28;20074;-75
2023/12/08 13:55:08;;;;;;;0.10;0.10;;;;;;;;;;5006763;28;20058;-75
2023/12/08 13:57:34;;;;;;;0.10;0.10;;;;;;;;;;5007221;28;20505;-75
2023/12/08 14:00:00;;;;;;;6.65;1.85;;;;;;;;;;5007577;28;20121;-75
2023/12/08 14:02:27;;;;;;;7.32;2.30;;;;;;;;;;5006945;28;20058;-75
2023/12/08 14:04:53;;;;;;;0.28;0.28;;;;;;;;;;4990186;28;20563;-75
2023/12/08 14:07:20;;;;;;;0.20;0.20;;;;;;;;;;5007482;28;20141;-75
2023/12/08 14:09:46;;;;;;;0.30;0.30;;;;;;;;;;5006925;28;20132;-75
2023/12/08 14:12:13;;;;;;;4.13;1.05;;;;;;;;;;5006511;28;20137;-75
2023/12/08 14:14:39;;;;;;;3.40;0.95;;;;;;;;;;5007390;28;20058;-74
2023/12/08 14:17:06;;;;;;;0.20;0.20;;;;;;;;;;5008250;28;20054;-75
2023/12/08 14:19:33;;;;;;;0.28;0.28;;;;;;;;;;5007306;28;20906;-75
2023/12/08 14:21:59;;;;;;;0.10;0.10;;;;;;;;;;5000673;28;20062;-75
2023/12/08 14:24:26;;;;;;;1.20;1.15;;;;;;;;;;5006731;28;20394;-74
2023/12/08 14:26:55;;;;;;;0.10;0.10;;;;;;;;;;5007446;28;20058;-75
2023/12/08 14:29:22;;;;;;;0.30;0.30;;;;;;;;;;5010439;28;20058;-75
2023/12/08 14:31:48;;;;;;;0.45;0.45;;;;;;;;;;5007043;28;20097;-75
2023/12/08 14:34:15;;;;;;;0.40;0.40;;;;;;;;;;5006479;28;20061;-75
2023/12/08 14:36:42;;;;;;;0.10;0.10;;;;;;;;;;5006991;28;20109;-75
2023/12/08 14:39:10;;;;;;;0.10;0.10;;;;;;;;;;5006896;28;20062;-75
2023/12/08 14:41:37;;;;;;;0.10;0.10;;;;;;;;;;5006634;28;20058;-75
2023/12/08 14:44:03;;;;;;;0.10;0.10;;;;;;;;;;5006429;28;20133;-75